Time;durP1;ratioP1;P1;durP2;ratioP2;P2;SDS_P1;SDS_P2;PMS_P1;PMS_P2;Temp;Humidity;BMP_temperature;BMP_pressure;BME280_temperature;BME280_humidity;BME280_pressure;Samples;Min_cycle;Max_cycle;Signal;HPM_P1;HPM_P2
2023/10/05 00:07:23;;;;;;;9.70;4.20;;;12.60;96.70;;;;;;20920634;28;20569;-67
2023/10/05 00:17:26;;;;;;;9.63;4.40;;;12.40;96.60;;;;;;20920545;28;20229;-67
2023/10/05 00:27:29;;;;;;;7.40;4.53;;;12.30;97.20;;;;;;20920426;28;20694;-67
2023/10/05 00:37:34;;;;;;;9.50;4.70;;;12.30;97.30;;;;;;20919203;28;20241;-67
2023/10/05 00:47:36;;;;;;;8.40;4.27;;;12.30;97.30;;;;;;20917939;28;20210;-67
2023/10/05 00:57:38;;;;;;;9.67;4.77;;;12.30;97.30;;;;;;20918121;28;20243;-67
2023/10/05 01:07:49;;;;;;;8.33;4.50;;;12.40;97.50;;;;;;20916570;28;20667;-67
2023/10/05 01:17:52;;;;;;;12.63;4.57;;;12.40;97.40;;;;;;20915733;28;20286;-67
2023/10/05 01:27:54;;;;;;;9.23;4.10;;;12.30;97.30;;;;;;20915563;28;20223;-66
2023/10/05 01:37:59;;;;;;;6.90;4.47;;;12.20;97.30;;;;;;20914891;28;20235;-66
2023/10/05 01:48:02;;;;;;;7.67;4.40;;;12.10;97.30;;;;;;20913535;28;20247;-67
2023/10/05 01:58:08;;;;;;;10.53;4.83;;;12.10;97.50;;;;;;20921895;28;20252;-66
2023/10/05 02:08:12;;;;;;;21.63;8.20;;;12.00;97.50;;;;;;20952008;28;20647;-67
2023/10/05 02:18:26;;;;;;;7.70;4.37;;;12.00;97.80;;;;;;20928833;28;20243;-66
2023/10/05 02:28:34;;;;;;;9.40;3.97;;;12.20;97.80;;;;;;20912113;28;20215;-66
2023/10/05 02:38:47;;;;;;;10.97;4.63;;;12.20;97.80;;;;;;20912057;28;20254;-67
2023/10/05 02:48:49;;;;;;;15.03;6.87;;;12.00;97.40;;;;;;20911030;28;20681;-67
2023/10/05 02:58:54;;;;;;;18.77;7.70;;;11.90;97.90;;;;;;20910744;28;20763;-66
2023/10/05 03:09:06;;;;;;;11.57;4.10;;;12.00;98.00;;;;;;20942252;28;20235;-66
2023/10/05 03:19:08;;;;;;;8.60;4.13;;;12.00;98.20;;;;;;20949860;28;20318;-66
2023/10/05 03:29:13;;;;;;;7.63;4.13;;;11.90;97.70;;;;;;20935795;28;20212;-66
2023/10/05 03:39:17;;;;;;;9.57;5.20;;;11.90;98.00;;;;;;20924643;28;20349;-66
2023/10/05 03:49:21;;;;;;;11.27;5.30;;;12.00;98.10;;;;;;20922920;28;20651;-67
2023/10/05 03:59:24;;;;;;;8.47;4.17;;;12.00;98.20;;;;;;20922462;28;20237;-67
2023/10/05 04:09:28;;;;;;;9.97;4.63;;;12.10;98.20;;;;;;20921324;28;20673;-67
2023/10/05 04:19:31;;;;;;;7.80;4.60;;;12.10;98.20;;;;;;20919854;28;20240;-66
2023/10/05 04:29:32;;;;;;;10.93;4.97;;;12.00;98.50;;;;;;20920203;28;20222;-68
2023/10/05 04:39:36;;;;;;;13.37;5.30;;;12.20;98.50;;;;;;20918977;28;20247;-67
2023/10/05 04:49:38;;;;;;;12.27;4.90;;;12.20;98.50;;;;;;20918037;28;20240;-67
2023/10/05 04:59:58;;;;;;;10.03;4.87;;;12.20;98.60;;;;;;20917522;28;20702;-67
2023/10/05 05:10:03;;;;;;;9.83;4.93;;;12.30;98.70;;;;;;20922643;28;20261;-67
2023/10/05 05:20:11;;;;;;;9.00;4.77;;;12.40;98.60;;;;;;20946824;28;20617;-66
2023/10/05 05:30:23;;;;;;;13.17;4.50;;;12.40;98.70;;;;;;20936415;28;20225;-65
2023/10/05 05:40:28;;;;;;;10.07;4.87;;;12.50;98.70;;;;;;20913593;28;20722;-66
2023/10/05 05:50:30;;;;;;;8.03;4.53;;;12.60;98.60;;;;;;20913029;28;20297;-65
2023/10/05 06:00:32;;;;;;;11.53;5.03;;;12.60;98.90;;;;;;20912428;28;20235;-66
2023/10/05 06:10:35;;;;;;;12.93;5.47;;;12.50;98.80;;;;;;20936361;28;20212;-67
2023/10/05 06:20:37;;;;;;;15.30;5.10;;;12.70;99.10;;;;;;20911533;28;20327;-66
2023/10/05 06:30:39;;;;;;;10.10;5.10;;;12.80;99.00;;;;;;20911520;28;20242;-67
2023/10/05 06:40:41;;;;;;;11.00;4.80;;;12.90;98.90;;;;;;20934226;28;20245;-67
2023/10/05 06:50:43;;;;;;;14.47;5.40;;;13.00;99.00;;;;;;20927234;28;20231;-68
2023/10/05 07:00:45;;;;;;;19.50;6.07;;;13.10;99.10;;;;;;20926438;28;20328;-67
2023/10/05 07:10:46;;;;;;;10.70;5.57;;;13.20;99.10;;;;;;20934368;28;20208;-67
2023/10/05 07:20:48;;;;;;;21.90;6.20;;;13.40;99.20;;;;;;20955207;28;20327;-67
2023/10/05 07:30:51;;;;;;;13.80;5.43;;;13.70;99.30;;;;;;20924183;28;20203;-68
2023/10/05 07:40:57;;;;;;;12.17;5.60;;;14.10;99.20;;;;;;20923711;28;20234;-68
2023/10/05 07:50:59;;;;;;;13.43;5.23;;;14.30;98.80;;;;;;20921372;28;20710;-67
2023/10/05 08:01:01;;;;;;;11.37;5.00;;;14.50;99.00;;;;;;20921727;28;20278;-68
2023/10/05 08:11:04;;;;;;;12.60;5.17;;;14.70;98.90;;;;;;20921304;28;20295;-68
2023/10/05 08:21:06;;;;;;;9.30;4.70;;;15.00;98.70;;;;;;20920137;28;20318;-68
2023/10/05 08:31:07;;;;;;;10.87;4.50;;;15.30;98.50;;;;;;20919615;28;20212;-68
2023/10/05 08:41:14;;;;;;;8.63;4.07;;;15.60;98.00;;;;;;20918981;28;20668;-67
2023/10/05 08:51:16;;;;;;;11.93;3.93;;;15.90;96.80;;;;;;20917854;28;20232;-67
2023/10/05 09:01:29;;;;;;;11.37;4.17;;;16.00;96.80;;;;;;20916614;28;20249;-69
2023/10/05 09:11:32;;;;;;;10.50;3.47;;;16.20;96.20;;;;;;20916377;28;20222;-69
2023/10/05 09:21:46;;;;;;;11.43;4.10;;;16.40;95.70;;;;;;20915274;28;20238;-69
2023/10/05 09:31:54;;;;;;;8.10;3.30;;;16.60;95.10;;;;;;20914294;28;20210;-68
2023/10/05 09:42:01;;;;;;;6.57;3.80;;;16.70;94.20;;;;;;20914125;28;20618;-69
2023/10/05 09:52:03;;;;;;;13.20;3.17;;;17.00;94.10;;;;;;20913347;28;20292;-68
2023/10/05 10:02:06;;;;;;;8.07;2.83;;;16.90;93.30;;;;;;20912430;28;20288;-68
2023/10/05 10:12:10;;;;;;;6.57;3.10;;;16.90;92.50;;;;;;20911920;28;20235;-68
2023/10/05 10:22:12;;;;;;;6.67;2.60;;;17.10;91.40;;;;;;20910740;28;20263;-68
2023/10/05 10:32:22;;;;;;;9.63;4.00;;;17.30;90.70;;;;;;20911216;28;20204;-68
2023/10/05 10:42:26;;;;;;;8.27;2.60;;;17.50;89.90;;;;;;20911497;28;20698;-68
2023/10/05 10:52:29;;;;;;;6.77;3.00;;;17.40;87.60;;;;;;20910414;28;20593;-67
2023/10/05 11:02:38;;;;;;;7.53;2.80;;;17.50;86.70;;;;;;20909780;28;20637;-68
2023/10/05 11:12:42;;;;;;;7.67;2.80;;;17.50;85.90;;;;;;20910029;28;20604;-68
2023/10/05 11:22:44;;;;;;;11.63;2.90;;;17.60;85.10;;;;;;20910070;28;20726;-67
2023/10/05 11:32:54;;;;;;;7.03;3.10;;;17.60;84.50;;;;;;20924146;28;20212;-67
2023/10/05 11:43:20;;;;;;;8.27;2.90;;;17.50;84.60;;;;;;20923789;28;20289;-68
2023/10/05 11:53:23;;;;;;;5.50;2.57;;;17.50;84.40;;;;;;20971514;28;20226;-67
2023/10/05 12:03:26;;;;;;;11.30;4.30;;;17.60;83.90;;;;;;20967278;28;20797;-68
2023/10/05 12:13:30;;;;;;;9.20;3.00;;;17.40;83.30;;;;;;20921789;28;20204;-70
2023/10/05 12:23:33;;;;;;;9.77;4.70;;;17.50;82.90;;;;;;20920208;28;20296;-72
2023/10/05 12:33:42;;;;;;;7.97;3.30;;;17.30;82.40;;;;;;20919510;28;20667;-69
2023/10/05 12:43:43;;;;;;;8.53;2.80;;;17.30;82.80;;;;;;20919075;28;20236;-67
2023/10/05 12:53:45;;;;;;;9.17;3.40;;;17.10;83.20;;;;;;20961805;28;20661;-67
2023/10/05 13:03:47;;;;;;;8.50;2.70;;;17.10;83.60;;;;;;20917156;28;20235;-67
2023/10/05 13:13:50;;;;;;;8.17;2.83;;;17.10;83.90;;;;;;20916888;28;20208;-67
2023/10/05 13:23:54;;;;;;;8.97;2.80;;;17.20;84.40;;;;;;20915076;28;20639;-68
2023/10/05 13:33:59;;;;;;;6.50;2.50;;;17.30;84.10;;;;;;20914288;28;20215;-69
2023/10/05 13:44:01;;;;;;;10.37;4.93;;;17.30;84.20;;;;;;20914382;28;20265;-71
2023/10/05 13:54:06;;;;;;;8.10;2.90;;;17.30;83.70;;;;;;20916230;28;20240;-71
2023/10/05 14:04:09;;;;;;;8.33;2.50;;;17.30;83.60;;;;;;20960165;28;20233;-70
2023/10/05 14:14:12;;;;;;;6.80;2.53;;;17.40;82.80;;;;;;20951858;28;20622;-71
2023/10/05 14:24:17;;;;;;;7.93;2.53;;;17.50;82.00;;;;;;20911977;28;20236;-72
2023/10/05 14:34:19;;;;;;;7.67;2.37;;;17.60;81.10;;;;;;20979417;28;20268;-71
2023/10/05 14:44:22;;;;;;;7.73;2.53;;;17.70;80.60;;;;;;20984774;28;20245;-72
2023/10/05 14:54:26;;;;;;;7.77;2.60;;;17.30;80.60;;;;;;20927441;28;20732;-69
2023/10/05 15:04:27;;;;;;;11.07;2.50;;;17.30;81.30;;;;;;20943240;28;20710;-71
2023/10/05 15:14:30;;;;;;;8.37;2.90;;;17.30;82.00;;;;;;20996302;28;20240;-68
2023/10/05 15:24:32;;;;;;;6.60;2.50;;;17.30;82.50;;;;;;20925796;28;20604;-65
2023/10/05 15:34:34;;;;;;;9.03;3.00;;;17.20;82.90;;;;;;20924315;28;20207;-65
2023/10/05 15:44:35;;;;;;;5.17;2.53;;;17.20;83.40;;;;;;20923399;28;20263;-65
2023/10/05 15:54:38;;;;;;;9.57;2.67;;;17.20;83.90;;;;;;20921921;28;20317;-66
2023/10/05 16:04:41;;;;;;;7.83;2.63;;;17.10;84.60;;;;;;20921684;28;20284;-66
2023/10/05 16:14:43;;;;;;;6.53;2.83;;;17.10;85.20;;;;;;20920552;28;20554;-66
2023/10/05 16:24:45;;;;;;;12.87;3.33;;;17.10;85.60;;;;;;20921070;28;20232;-65
2023/10/05 16:34:47;;;;;;;8.00;2.77;;;17.10;85.90;;;;;;20919638;28;20286;-66
2023/10/05 16:44:49;;;;;;;8.37;2.80;;;17.00;86.30;;;;;;20919082;28;20238;-67
2023/10/05 16:54:52;;;;;;;5.90;2.50;;;16.90;86.80;;;;;;20917462;28;20726;-67
2023/10/05 17:04:54;;;;;;;9.23;2.90;;;16.70;87.10;;;;;;20917324;28;20235;-62
2023/10/05 17:14:56;;;;;;;8.00;2.77;;;16.70;88.20;;;;;;20916507;28;20210;-64
2023/10/05 17:24:58;;;;;;;12.67;2.93;;;16.50;89.00;;;;;;20915831;28;20242;-64
2023/10/05 17:35:00;;;;;;;7.57;2.90;;;16.30;90.00;;;;;;20915201;28;20217;-65
2023/10/05 17:45:02;;;;;;;10.40;3.60;;;16.20;90.40;;;;;;20914063;28;20231;-65
2023/10/05 17:55:07;;;;;;;12.20;4.17;;;16.00;90.90;;;;;;20911812;28;20246;-67
2023/10/05 18:05:12;;;;;;;9.10;4.60;;;15.90;91.30;;;;;;20935767;28;20691;-67
2023/10/05 18:15:21;;;;;;;10.50;4.73;;;15.70;91.70;;;;;;20982654;28;20200;-67
2023/10/05 18:25:23;;;;;;;9.57;4.97;;;15.50;92.20;;;;;;20912110;28;20279;-69
2023/10/05 18:35:26;;;;;;;12.40;4.67;;;15.40;92.80;;;;;;20952133;28;20200;-68
2023/10/05 18:45:29;;;;;;;20.43;7.37;;;15.20;93.20;;;;;;21011076;28;20243;-68
2023/10/05 18:55:31;;;;;;;25.17;11.33;;;15.10;93.80;;;;;;21028212;28;20744;-69
2023/10/05 19:05:33;;;;;;;27.30;17.03;;;14.90;94.20;;;;;;21033112;28;20509;-72
2023/10/05 19:15:35;;;;;;;11.20;5.13;;;15.30;95.10;;;;;;20993318;28;20203;-68
2023/10/05 19:25:41;;;;;;;11.70;4.97;;;14.70;95.40;;;;;;21058181;28;20715;-69
2023/10/05 19:35:43;;;;;;;11.53;4.93;;;14.60;95.80;;;;;;21051187;28;20209;-68
2023/10/05 19:45:45;;;;;;;10.43;5.40;;;14.50;95.90;;;;;;21090317;28;20712;-67
2023/10/05 19:55:54;;;;;;;13.00;6.40;;;14.40;96.10;;;;;;21089968;28;20227;-67
2023/10/05 20:05:56;;;;;;;14.40;6.63;;;14.30;96.30;;;;;;21029822;28;20237;-66
2023/10/05 20:16:00;;;;;;;14.80;6.97;;;14.10;96.60;;;;;;21033652;28;20442;-65
2023/10/05 20:26:11;;;;;;;13.97;5.93;;;14.70;96.70;;;;;;20988108;28;20583;-63
2023/10/05 20:36:13;;;;;;;9.53;5.70;;;13.90;97.00;;;;;;20964672;28;20207;-64
2023/10/05 20:46:15;;;;;;;10.13;6.17;;;13.90;97.30;;;;;;21001412;28;20269;-65
2023/10/05 20:56:16;;;;;;;13.17;6.40;;;13.70;97.30;;;;;;21001040;28;20229;-64
2023/10/05 21:06:18;;;;;;;9.57;5.27;;;13.60;97.50;;;;;;21014273;28;20714;-64
2023/10/05 21:16:20;;;;;;;14.23;5.30;;;13.50;97.60;;;;;;21003554;28;20199;-65
2023/10/05 21:26:22;;;;;;;9.50;5.73;;;13.50;97.80;;;;;;20998837;28;20242;-64
2023/10/05 21:36:24;;;;;;;11.90;6.00;;;13.30;97.70;;;;;;20997654;28;20564;-63
2023/10/05 21:46:26;;;;;;;11.87;5.50;;;13.30;98.00;;;;;;20996859;28;20236;-63
2023/10/05 21:56:28;;;;;;;13.37;5.70;;;13.20;97.90;;;;;;20996853;28;20340;-63
2023/10/05 22:06:30;;;;;;;10.33;5.60;;;13.10;98.00;;;;;;21011612;28;20226;-63
2023/10/05 22:16:32;;;;;;;11.53;5.70;;;13.00;98.10;;;;;;21079105;28;20552;-62
2023/10/05 22:26:34;;;;;;;9.50;4.80;;;12.90;98.20;;;;;;21078746;28;20234;-61
2023/10/05 22:36:36;;;;;;;11.00;5.40;;;12.80;98.40;;;;;;21077021;28;20209;-63
2023/10/05 22:46:38;;;;;;;10.50;5.00;;;12.70;98.30;;;;;;21077490;28;20317;-64
2023/10/05 22:56:40;;;;;;;10.53;5.17;;;12.70;98.30;;;;;;21077833;28;20579;-63
2023/10/05 23:06:46;;;;;;;10.10;5.50;;;12.70;98.40;;;;;;21076028;28;20644;-62
2023/10/05 23:16:48;;;;;;;9.43;5.30;;;12.60;98.50;;;;;;21075025;28;20273;-62
2023/10/05 23:26:50;;;;;;;11.50;4.83;;;12.50;98.50;;;;;;21090213;28;20266;-63
2023/10/05 23:36:54;;;;;;;8.00;4.70;;;12.50;98.50;;;;;;21091116;28;20219;-63
2023/10/05 23:47:00;;;;;;;12.20;4.80;;;12.40;98.50;;;;;;21090496;28;20246;-63
2023/10/05 23:57:22;;;;;;;8.10;4.13;;;12.30;98.60;;;;;;21089835;28;20290;-63
